Tyro, Mississippi
Current Conditions -  °F | °C
As of 4:55 AM on Thursday 27 Nov 2014 (Local Time) from KUOX Reporting Station
Scattered Clouds Scattered Clouds  
Wind Chill: 29°   Ceiling: Unl
Heat Index: 36°   Visibility: 10mi
Dew Point: 27°   Wind: 9mph
Humidity: 70%   Direction: 330°NNW
Pressure: 30.34"   Gusts: 16mph
Location:  34.6336°N, 89.8203°W
Report Text: KUOX 271055Z AUTO 33008G14KT 10SM SCT035 02/M03 A3034 RMK AO2 PWINO PNO
Loading
Personal Weather Stations






























Interactive Weather Map New forecast layout! Learn more

10-Day Weather Forecast

Advertisements
Track Severe Weather on mobile